This is the latest recevied weather packets stored in our database for station/object E22ZMG-3. If no packets are shown the sender has not sent any weather packets the latest 10 day(s).
| Time | Temp. | Humidity | Pressure | Rain* | Wind** | Luminosity | Snow |
|---|---|---|---|---|---|---|---|
| 1777475299 | 32.78° C | 48% | 976 hPa | - | - | 0 W/m² | - |
| 1777474674 | 33.33° C | 48% | 976 hPa | - | - | 0 W/m² | - |
| 1777474049 | 34.44° C | 45% | 976 hPa | - | - | 0 W/m² | - |
| 1777473425 | 33.89° C | 44% | 976 hPa | - | - | 0 W/m² | - |
| 1777472799 | 33.33° C | 46% | 976 hPa | - | - | 0 W/m² | - |
| 1777472175 | 34.44° C | 43% | 976 hPa | - | - | 0 W/m² | - |
| 1777471551 | 33.89° C | 44% | 975 hPa | - | - | 0 W/m² | - |
| 1777470926 | 33.33° C | 44% | 975 hPa | - | - | 0 W/m² | - |
| 1777470301 | 33.89° C | 44% | 975 hPa | - | - | 0 W/m² | - |
| 1777469676 | 33.89° C | 45% | 975 hPa | - | - | 0 W/m² | - |
| 1777469051 | 34.44° C | 43% | 975 hPa | - | - | 0 W/m² | - |
| 1777468427 | 34.44° C | 43% | 975 hPa | - | - | 0 W/m² | - |
| 1777467802 | 33.89° C | 44% | 975 hPa | - | - | 0 W/m² | - |
| 1777467178 | 35° C | 41% | 974 hPa | - | - | 0 W/m² | - |
| 1777466552 | 35° C | 42% | 974 hPa | - | - | 0 W/m² | - |
| 1777465928 | 35° C | 42% | 974 hPa | - | - | 0 W/m² | - |
| 1777465304 | 35° C | 42% | 974 hPa | - | - | 0 W/m² | - |
| 1777464678 | 35.56° C | 42% | 974 hPa | - | - | 0 W/m² | - |
| 1777464053 | 35.56° C | 40% | 974 hPa | - | - | 0 W/m² | - |
| 1777463429 | 35° C | 41% | 974 hPa | - | - | 0 W/m² | - |
| 1777462804 | 35.56° C | 40% | 973 hPa | - | - | 0 W/m² | - |
| 1777462180 | 35° C | 40% | 974 hPa | - | - | 0 W/m² | - |
| 1777461555 | 35° C | 40% | 973 hPa | - | - | 0 W/m² | - |
| 1777460930 | 35.56° C | 39% | 973 hPa | - | - | 0 W/m² | - |
| 1777460306 | 36.11° C | 38% | 973 hPa | - | - | 0 W/m² | - |
* Rain since midnight (hover to see other rain measurements)
** Current wind speed in m/s (hover to see current wind gust speed)